createdAt,value
2022-07-28T00:02:36.938Z,3.10
2022-07-28T00:07:22.208Z,3.80
2022-07-28T00:12:06.392Z,3.50
2022-07-28T00:16:50.016Z,3.07
2022-07-28T00:21:33.603Z,3.27
2022-07-28T00:26:18.445Z,3.33
2022-07-28T00:31:05.279Z,3.33
2022-07-28T00:35:51.151Z,3.50
2022-07-28T00:40:52.291Z,3.77
2022-07-28T00:45:37.260Z,3.47
2022-07-28T00:50:20.877Z,3.37
2022-07-28T00:55:05.759Z,3.67
2022-07-28T00:59:49.315Z,3.70
2022-07-28T01:04:34.529Z,4.00
2022-07-28T01:09:32.070Z,2.83
2022-07-28T01:14:22.712Z,3.50
2022-07-28T01:19:11.992Z,3.20
2022-07-28T01:24:19.054Z,3.70
2022-07-28T01:29:12.145Z,3.67
2022-07-28T01:34:00.882Z,3.37
2022-07-28T01:38:45.562Z,3.33
2022-07-28T01:43:33.012Z,3.47
2022-07-28T01:48:19.196Z,3.57
2022-07-28T01:53:05.294Z,4.03
2022-07-28T01:57:50.394Z,3.60
2022-07-28T02:02:35.932Z,3.90
2022-07-28T02:07:21.920Z,3.43
2022-07-28T02:12:08.513Z,3.90
2022-07-28T02:16:57.116Z,3.40
2022-07-28T02:21:41.083Z,3.90
2022-07-28T02:26:42.880Z,3.93
2022-07-28T02:31:30.909Z,3.70
2022-07-28T02:36:18.637Z,4.30
2022-07-28T02:41:17.482Z,3.80
2022-07-28T02:46:03.938Z,3.83
2022-07-28T02:50:49.478Z,3.37
2022-07-28T02:55:34.231Z,4.10
2022-07-28T03:00:18.513Z,3.23
2022-07-28T03:05:03.215Z,3.80
2022-07-28T03:09:53.687Z,3.67
2022-07-28T03:14:37.301Z,4.60
2022-07-28T03:19:21.050Z,4.97
2022-07-28T03:24:04.916Z,3.73
2022-07-28T03:28:52.435Z,4.57
2022-07-28T03:33:35.938Z,4.20
2022-07-28T03:38:24.043Z,4.57
2022-07-28T03:43:10.834Z,4.37
2022-07-28T03:47:57.731Z,3.50
2022-07-28T03:52:41.232Z,4.93
2022-07-28T03:57:24.647Z,4.43
2022-07-28T04:02:08.289Z,4.33
2022-07-28T04:06:53.319Z,5.20
2022-07-28T04:11:36.764Z,4.90
2022-07-28T04:16:20.243Z,4.57
2022-07-28T04:21:06.229Z,5.90
2022-07-28T04:25:51.084Z,5.17
2022-07-28T04:30:34.655Z,5.30
2022-07-28T04:35:26.884Z,4.80
2022-07-28T04:40:12.500Z,5.10
2022-07-28T04:44:57.446Z,4.70
2022-07-28T04:49:41.175Z,5.53
2022-07-28T04:54:26.725Z,6.07
2022-07-28T04:59:10.814Z,7.80
2022-07-28T05:03:55.712Z,6.10
2022-07-28T05:08:39.237Z,8.73
2022-07-28T05:13:22.802Z,9.07
2022-07-28T05:18:07.565Z,9.63
2022-07-28T05:22:53.918Z,10.73
2022-07-28T05:27:37.450Z,9.70
2022-07-28T05:32:21.004Z,7.33
2022-07-28T05:37:04.662Z,7.33
2022-07-28T05:41:49.581Z,6.43
2022-07-28T05:46:33.059Z,6.30
2022-07-28T05:51:16.610Z,6.30
2022-07-28T05:56:01.685Z,6.13
2022-07-28T06:00:47.114Z,5.88
2022-07-28T06:05:33.624Z,5.85
2022-07-28T06:10:18.771Z,7.65
2022-07-28T06:15:05.190Z,7.20
2022-07-28T06:19:50.177Z,6.55
2022-07-28T06:24:34.068Z,5.65
2022-07-28T06:29:38.789Z,5.00
2022-07-28T06:44:58.824Z,3.63
2022-07-28T06:50:24.821Z,3.58
2022-07-28T06:55:35.416Z,4.00
2022-07-28T07:00:25.116Z,4.40
2022-07-28T07:05:36.685Z,4.00
2022-07-28T07:16:34.925Z,4.15
2022-07-28T07:22:26.152Z,4.13
2022-07-28T07:32:37.877Z,3.63
2022-07-28T07:37:21.463Z,4.25
2022-07-28T07:42:05.062Z,3.47
2022-07-28T07:46:50.236Z,3.25
2022-07-28T07:51:34.074Z,3.97
2022-07-28T07:56:18.606Z,2.97
2022-07-28T08:01:02.077Z,3.40
2022-07-28T08:05:47.322Z,3.40
2022-07-28T08:10:34.911Z,3.35
2022-07-28T08:15:18.531Z,3.90
2022-07-28T08:20:03.343Z,3.60
2022-07-28T08:24:48.344Z,3.78
2022-07-28T08:29:32.142Z,3.75
2022-07-28T08:34:31.860Z,3.35
2022-07-28T08:39:17.361Z,4.18
2022-07-28T08:44:05.038Z,3.35
2022-07-28T08:48:49.597Z,3.20
2022-07-28T08:53:34.168Z,3.95
2022-07-28T08:58:18.666Z,3.60
2022-07-28T09:03:04.930Z,3.88
2022-07-28T09:07:54.388Z,4.20
2022-07-28T09:12:38.324Z,5.32
2022-07-28T09:17:21.823Z,4.95
2022-07-28T09:22:08.392Z,4.47
2022-07-28T09:27:02.216Z,5.43
2022-07-28T09:31:57.056Z,5.15
2022-07-28T09:36:42.454Z,4.55
2022-07-28T09:41:27.587Z,5.20
2022-07-28T09:46:13.289Z,4.95
2022-07-28T09:51:11.546Z,5.07
2022-07-28T09:56:00.163Z,4.75
2022-07-28T10:00:46.135Z,4.43
2022-07-28T10:05:41.398Z,4.63
2022-07-28T10:10:24.960Z,4.72
2022-07-28T10:15:35.656Z,4.45
2022-07-28T10:20:21.833Z,3.85
2022-07-28T10:25:10.119Z,4.55
2022-07-28T10:29:59.689Z,3.78
2022-07-28T10:34:50.724Z,4.13
2022-07-28T10:39:43.274Z,3.53
2022-07-28T10:44:28.253Z,3.55
2022-07-28T10:49:12.739Z,3.40
2022-07-28T10:54:02.617Z,3.60
2022-07-28T10:59:04.299Z,3.28
2022-07-28T11:03:48.480Z,3.20
2022-07-28T11:08:34.510Z,3.60
2022-07-28T11:13:29.121Z,3.20
2022-07-28T11:18:14.412Z,3.15
2022-07-28T11:23:37.444Z,3.17
2022-07-28T11:28:21.020Z,3.85
2022-07-28T11:33:07.186Z,3.85
2022-07-28T11:38:12.747Z,3.40
2022-07-28T11:43:36.630Z,3.65
2022-07-28T11:48:25.378Z,3.28
2022-07-28T11:53:11.513Z,3.17
2022-07-28T11:57:55.072Z,6.72
2022-07-28T12:02:38.750Z,3.08
2022-07-28T12:07:34.133Z,3.22
2022-07-28T12:12:19.131Z,3.38
2022-07-28T12:17:02.720Z,2.90
2022-07-28T12:21:50.024Z,3.40
2022-07-28T12:26:40.773Z,3.15
2022-07-28T12:31:30.175Z,3.30
2022-07-28T12:36:15.056Z,2.75
2022-07-28T12:40:59.490Z,3.42
2022-07-28T12:45:46.621Z,2.90
2022-07-28T12:50:39.053Z,3.17
2022-07-28T12:55:25.075Z,3.28
2022-07-28T13:00:10.084Z,2.90
2022-07-28T13:04:53.719Z,3.08
2022-07-28T13:09:41.908Z,2.83
2022-07-28T13:14:43.712Z,2.90
2022-07-28T13:19:27.326Z,2.78
2022-07-28T13:24:11.580Z,2.60
2022-07-28T13:29:02.715Z,3.55
2022-07-28T13:33:56.486Z,2.95
2022-07-28T13:38:40.027Z,2.92
2022-07-28T13:43:23.498Z,2.30
2022-07-28T13:48:21.008Z,2.30
2022-07-28T13:53:04.540Z,2.70
2022-07-28T13:57:48.509Z,2.75
2022-07-28T14:02:32.909Z,3.08
2022-07-28T14:07:20.782Z,2.92
2022-07-28T14:12:05.472Z,2.80
2022-07-28T14:16:49.180Z,2.70
2022-07-28T14:21:32.684Z,2.90
2022-07-28T14:26:35.462Z,2.78
2022-07-28T14:31:19.781Z,2.63
2022-07-28T14:36:03.518Z,2.33
2022-07-28T14:40:47.150Z,2.03
2022-07-28T14:45:32.068Z,2.55
2022-07-28T14:50:35.583Z,2.75
2022-07-28T14:55:19.222Z,2.20
2022-07-28T15:00:02.876Z,2.13
2022-07-28T15:04:47.812Z,2.30
2022-07-28T15:09:31.249Z,2.30
2022-07-28T15:14:15.404Z,2.90
2022-07-28T15:18:59.434Z,2.38
2022-07-28T15:23:44.434Z,2.47
2022-07-28T15:28:28.953Z,2.45
2022-07-28T15:33:12.421Z,1.98
2022-07-28T15:37:56.750Z,2.50
2022-07-28T15:42:41.632Z,2.58
2022-07-28T15:47:25.244Z,2.55
2022-07-28T15:52:08.883Z,2.70
2022-07-28T15:56:52.462Z,2.50
2022-07-28T16:01:39.805Z,2.30
2022-07-28T16:06:48.442Z,2.47
2022-07-28T16:11:32.038Z,2.75
2022-07-28T16:16:16.610Z,3.22
2022-07-28T16:21:01.922Z,3.15
2022-07-28T16:25:46.020Z,3.53
2022-07-28T16:30:31.008Z,2.95
2022-07-28T16:35:15.847Z,3.40
2022-07-28T16:40:00.774Z,3.17
2022-07-28T16:44:44.294Z,3.13
2022-07-28T16:49:27.861Z,3.53
2022-07-28T16:54:12.556Z,3.50
2022-07-28T16:59:00.610Z,4.43
2022-07-28T17:03:44.430Z,4.35
2022-07-28T17:08:28.059Z,3.92
2022-07-28T17:13:13.269Z,3.40
2022-07-28T17:17:58.365Z,3.38
2022-07-28T17:22:42.531Z,3.88
2022-07-28T17:27:37.371Z,3.65
2022-07-28T17:32:22.390Z,3.70
2022-07-28T17:37:07.718Z,3.88
2022-07-28T17:41:51.631Z,3.85
2022-07-28T17:46:36.334Z,4.07
2022-07-28T17:51:28.908Z,3.75
2022-07-28T17:56:14.286Z,4.90
2022-07-28T18:01:10.641Z,4.22
2022-07-28T18:05:55.723Z,3.97
2022-07-28T18:10:41.405Z,4.13
2022-07-28T18:15:28.343Z,3.90
2022-07-28T18:20:14.609Z,4.00
2022-07-28T18:24:59.439Z,4.60
2022-07-28T18:29:43.083Z,2.60
2022-07-28T18:34:28.363Z,1.65
2022-07-28T18:39:12.613Z,1.30
2022-07-28T18:43:58.045Z,2.13
2022-07-28T18:48:41.979Z,2.38
2022-07-28T18:53:31.896Z,2.90
2022-07-28T18:58:17.833Z,2.83
2022-07-28T19:03:04.740Z,2.20
2022-07-28T19:07:48.503Z,1.73
2022-07-28T19:12:34.502Z,1.63
2022-07-28T19:17:20.761Z,1.52
2022-07-28T19:22:09.932Z,1.50
2022-07-28T19:26:54.082Z,1.63
2022-07-28T19:31:39.980Z,1.98
2022-07-28T19:36:23.777Z,1.70
2022-07-28T19:41:07.806Z,0.82
2022-07-28T19:45:57.636Z,0.80
2022-07-28T19:50:49.991Z,0.70
2022-07-28T19:55:36.140Z,0.60
2022-07-28T20:00:19.993Z,0.73
2022-07-28T20:05:03.771Z,0.80
2022-07-28T20:09:49.416Z,0.90
2022-07-28T20:14:34.162Z,1.05
2022-07-28T20:19:17.941Z,0.80
2022-07-28T20:24:01.591Z,0.73
2022-07-28T20:28:46.854Z,0.63
2022-07-28T20:33:31.274Z,1.10
2022-07-28T20:38:14.903Z,0.95
2022-07-28T20:42:58.535Z,0.80
2022-07-28T20:47:43.602Z,0.95
2022-07-28T20:52:27.285Z,1.10
2022-07-28T20:57:11.194Z,1.27
2022-07-28T21:01:54.855Z,0.93
2022-07-28T21:06:51.265Z,1.30
2022-07-28T21:11:37.888Z,1.20
2022-07-28T21:16:22.177Z,1.00
2022-07-28T21:21:06.741Z,1.10
2022-07-28T21:26:12.360Z,1.10
2022-07-28T21:30:56.438Z,1.10
2022-07-28T21:35:40.095Z,1.48
2022-07-28T21:40:24.355Z,1.10
2022-07-28T21:45:10.914Z,1.20
2022-07-28T21:49:54.964Z,1.00
2022-07-28T21:54:39.817Z,1.27
2022-07-28T21:59:23.388Z,1.30
2022-07-28T22:04:08.403Z,1.20
2022-07-28T22:08:54.129Z,1.10
2022-07-28T22:13:37.916Z,1.40
2022-07-28T22:18:23.485Z,1.23
2022-07-28T22:23:17.999Z,1.23
2022-07-28T22:28:14.120Z,1.40
2022-07-28T22:33:00.437Z,1.00
2022-07-28T22:37:44.897Z,1.10
2022-07-28T22:42:30.030Z,1.27
2022-07-28T22:47:13.695Z,1.30
2022-07-28T22:51:57.372Z,1.20
2022-07-28T22:56:40.927Z,1.20
2022-07-28T23:01:25.892Z,1.00
2022-07-28T23:06:10.502Z,0.90
2022-07-28T23:10:54.400Z,0.77
2022-07-28T23:15:39.371Z,0.98
2022-07-28T23:20:26.307Z,0.82
2022-07-28T23:25:11.119Z,0.73
2022-07-28T23:29:54.628Z,0.70
2022-07-28T23:34:38.423Z,0.63
2022-07-28T23:39:23.290Z,0.80
2022-07-28T23:44:06.812Z,0.88
2022-07-28T23:48:50.357Z,0.90
2022-07-28T23:53:34.005Z,0.63
2022-07-28T23:58:19.200Z,0.80
